Target — 9HA2149 — position and weather

sailwx.info

Track history (hours):
 
Tides and Currents Weather Stations Pressure Air Temp Water Temp Dewpoint Dewpoint Depression Visibility Wind Speed Wind Dir Waves Ship Positions

Target

Last reported at 2014-Oct-23 08:31 UTC. Time now 2014-Oct-23 09:24 UTC.
Position N 54°27' E 018°42'.

Length 250 m; draft 8 m.

Type: Tanker. MMSI: 248057000.

Date/timePositionNaut miles runAvg speedWind from/ knotsBaromVisibWave heightAir tempDewpointWater temp
2014-Oct-23 08:31N 54°27' E 018°42'0 0.0
2014-Oct-23 07:31N 54°27' E 018°43'0 0.0
2014-Oct-23 06:31N 54°27' E 018°42'0 0.0
2014-Oct-23 05:31N 54°27' E 018°42'0 0.0
2014-Oct-23 04:28N 54°27' E 018°42'0 0.0
2014-Oct-23 03:31N 54°27' E 018°42'0 0.1
2014-Oct-23 02:31N 54°27' E 018°42'0 0.0
2014-Oct-23 01:31N 54°28' E 018°42'0 0.0
2014-Oct-23 00:31N 54°28' E 018°42'0 0.0
2014-Oct-22 23:31N 54°27' E 018°42'0 0.0
2014-Oct-22 22:31N 54°28' E 018°42'0 0.0
2014-Oct-22 21:31N 54°28' E 018°42'0 0.0
2014-Oct-22 20:31N 54°28' E 018°42'0 0.0
2014-Oct-22 19:31N 54°28' E 018°42'0 0.0
2014-Oct-22 18:31N 54°28' E 018°42'0 0.0
2014-Oct-22 17:31N 54°28' E 018°42'0 0.0
2014-Oct-22 16:31N 54°28' E 018°42'0 0.0
2014-Oct-22 15:31N 54°28' E 018°42'0 0.0
2014-Oct-22 14:31N 54°28' E 018°42'0 0.0
2014-Oct-22 13:31N 54°28' E 018°42'0 0.0
2014-Oct-22 12:31N 54°28' E 018°42'0 0.0
2014-Oct-22 11:31N 54°28' E 018°42'0 0.0
2014-Oct-22 10:31N 54°28' E 018°42'0 0.0
2014-Oct-22 09:31N 54°28' E 018°42'3 3.2
2014-Oct-22 08:33N 54°30' E 018°45'8 7.5
2014-Oct-22 07:33N 54°36' E 018°53'1111.1
2014-Oct-22 06:33N 54°47' E 018°57'9 9.4
2014-Oct-22 05:33N 54°56' E 018°57'7 7.2
2014-Oct-22 04:33N 55°01' E 018°48'9 8.6
2014-Oct-22 03:33N 55°02' E 018°33'9 8.7
2014-Oct-22 02:33N 55°03' E 018°18'9 8.7
2014-Oct-22 01:34N 55°04' E 018°03'9 8.7
2014-Oct-22 00:33N 55°05' E 017°48'7710.7
2014-Oct-21 17:25N 55°14' E 015°34'1011.7
2014-Oct-21 16:34N 55°16' E 015°17'1111.4
2014-Oct-21 15:34N 55°17' E 014°57'9 8.7
2014-Oct-21 14:34N 55°18' E 014°42'1312.9
2014-Oct-21 13:34N 55°10' E 014°24'1313.1
2014-Oct-21 12:34N 55°01' E 014°07'1313.0
2014-Oct-21 11:34N 54°56' E 013°46'5612.9
2014-Oct-21 07:15N 54°33' E 012°18'912.3
2014-Oct-21 06:33N 54°26' E 012°11'1312.8
2014-Oct-21 05:34N 54°25' E 011°49'13110.8
2014-Oct-20 17:26N 56°36' E 011°42'1112.7
2014-Oct-20 16:33N 56°46' E 011°51'1312.7
2014-Oct-20 15:32N 56°59' E 011°43'1313.0
2014-Oct-20 14:33N 57°11' E 011°35'1312.8
2014-Oct-20 13:33N 57°22' E 011°26'1212.5
2014-Oct-20 12:33N 57°32' E 011°12'1313.4
2014-Oct-20 11:34N 57°40' E 010°53'9 9.1
2014-Oct-20 10:34N 57°48' E 010°44'1110.6
2014-Oct-20 09:33N 57°49' E 010°24'1211.4
2014-Oct-20 08:31N 57°49' E 010°02'  
2014-Oct-14 08:25N 55°37' W 007°04'910.0
2014-Oct-14 07:33N 55°33' W 006°50'1110.5
2014-Oct-14 06:33N 55°28' W 006°33'1110.9
2014-Oct-14 05:33N 55°26' W 006°15'9 9.3
2014-Oct-14 04:33N 55°22' W 006°00'1110.6
2014-Oct-14 03:33N 55°14' W 005°49'9 9.3
2014-Oct-14 02:33N 55°07' W 005°38'8 8.3
2014-Oct-14 01:33N 55°00' W 005°29'8 7.6
2014-Oct-14 00:33N 54°54' W 005°22'7 7.3
2014-Oct-13 23:34N 54°48' W 005°16'7 7.2
2014-Oct-13 22:33N 54°41' W 005°09'8 7.7
2014-Oct-13 21:33N 54°35' W 005°03'8 7.8
2014-Oct-13 20:33N 54°27' W 004°60'8 8.0
2014-Oct-13 19:33N 54°19' W 004°60'10 8.2
2014-Oct-13 18:22N 54°09' W 005°00'5110.2
2014-Oct-13 13:26N 53°38' W 003°53'1111.8
2014-Oct-13 12:32N 53°34' W 003°37'1111.6
2014-Oct-13 11:32N 53°32' W 003°18'9 8.9
2014-Oct-13 10:33N 53°28' W 003°04'  
Track history (hours):
 
Tides and Currents Weather Stations Pressure Air Temp Water Temp Dewpoint Dewpoint Depression Visibility Wind Speed Wind Dir Waves Ship Positions

Target

Last reported at 2014-Oct-23 08:31 UTC. Time now 2014-Oct-23 09:24 UTC.
Position N 54°27' E 018°42'.

Length 250 m; draft 8 m.

Type: Tanker. MMSI: 248057000.

Date/timePositionNaut miles runAvg speedWind from/ knotsBaromVisibWave heightAir tempDewpointWater temp
2014-Oct-23 08:31N 54°27' E 018°42'0 0.0
2014-Oct-23 07:31N 54°27' E 018°43'0 0.0
2014-Oct-23 06:31N 54°27' E 018°42'0 0.0
2014-Oct-23 05:31N 54°27' E 018°42'0 0.0
2014-Oct-23 04:28N 54°27' E 018°42'0 0.0
2014-Oct-23 03:31N 54°27' E 018°42'0 0.1
2014-Oct-23 02:31N 54°27' E 018°42'0 0.0
2014-Oct-23 01:31N 54°28' E 018°42'0 0.0
2014-Oct-23 00:31N 54°28' E 018°42'0 0.0
2014-Oct-22 23:31N 54°27' E 018°42'0 0.0
2014-Oct-22 22:31N 54°28' E 018°42'0 0.0
2014-Oct-22 21:31N 54°28' E 018°42'0 0.0
2014-Oct-22 20:31N 54°28' E 018°42'0 0.0
2014-Oct-22 19:31N 54°28' E 018°42'0 0.0
2014-Oct-22 18:31N 54°28' E 018°42'0 0.0
2014-Oct-22 17:31N 54°28' E 018°42'0 0.0
2014-Oct-22 16:31N 54°28' E 018°42'0 0.0
2014-Oct-22 15:31N 54°28' E 018°42'0 0.0
2014-Oct-22 14:31N 54°28' E 018°42'0 0.0
2014-Oct-22 13:31N 54°28' E 018°42'0 0.0
2014-Oct-22 12:31N 54°28' E 018°42'0 0.0
2014-Oct-22 11:31N 54°28' E 018°42'0 0.0
2014-Oct-22 10:31N 54°28' E 018°42'0 0.0
2014-Oct-22 09:31N 54°28' E 018°42'3 3.2
2014-Oct-22 08:33N 54°30' E 018°45'8 7.5
2014-Oct-22 07:33N 54°36' E 018°53'1111.1
2014-Oct-22 06:33N 54°47' E 018°57'9 9.4
2014-Oct-22 05:33N 54°56' E 018°57'7 7.2
2014-Oct-22 04:33N 55°01' E 018°48'9 8.6
2014-Oct-22 03:33N 55°02' E 018°33'9 8.7
2014-Oct-22 02:33N 55°03' E 018°18'9 8.7
2014-Oct-22 01:34N 55°04' E 018°03'9 8.7
2014-Oct-22 00:33N 55°05' E 017°48'7710.7
2014-Oct-21 17:25N 55°14' E 015°34'1011.7
2014-Oct-21 16:34N 55°16' E 015°17'1111.4
2014-Oct-21 15:34N 55°17' E 014°57'9 8.7
2014-Oct-21 14:34N 55°18' E 014°42'1312.9
2014-Oct-21 13:34N 55°10' E 014°24'1313.1
2014-Oct-21 12:34N 55°01' E 014°07'1313.0
2014-Oct-21 11:34N 54°56' E 013°46'5612.9
2014-Oct-21 07:15N 54°33' E 012°18'912.3
2014-Oct-21 06:33N 54°26' E 012°11'1312.8
2014-Oct-21 05:34N 54°25' E 011°49'13110.8
2014-Oct-20 17:26N 56°36' E 011°42'1112.7
2014-Oct-20 16:33N 56°46' E 011°51'1312.7
2014-Oct-20 15:32N 56°59' E 011°43'1313.0
2014-Oct-20 14:33N 57°11' E 011°35'1312.8
2014-Oct-20 13:33N 57°22' E 011°26'1212.5
2014-Oct-20 12:33N 57°32' E 011°12'1313.4
2014-Oct-20 11:34N 57°40' E 010°53'9 9.1
2014-Oct-20 10:34N 57°48' E 010°44'1110.6
2014-Oct-20 09:33N 57°49' E 010°24'1211.4
2014-Oct-20 08:31N 57°49' E 010°02'  
2014-Oct-14 08:25N 55°37' W 007°04'910.0
2014-Oct-14 07:33N 55°33' W 006°50'1110.5
2014-Oct-14 06:33N 55°28' W 006°33'1110.9
2014-Oct-14 05:33N 55°26' W 006°15'9 9.3
2014-Oct-14 04:33N 55°22' W 006°00'1110.6
2014-Oct-14 03:33N 55°14' W 005°49'9 9.3
2014-Oct-14 02:33N 55°07' W 005°38'8 8.3
2014-Oct-14 01:33N 55°00' W 005°29'8 7.6
2014-Oct-14 00:33N 54°54' W 005°22'7 7.3
2014-Oct-13 23:34N 54°48' W 005°16'7 7.2
2014-Oct-13 22:33N 54°41' W 005°09'8 7.7
2014-Oct-13 21:33N 54°35' W 005°03'8 7.8
2014-Oct-13 20:33N 54°27' W 004°60'8 8.0
2014-Oct-13 19:33N 54°19' W 004°60'10 8.2
2014-Oct-13 18:22N 54°09' W 005°00'5110.2
2014-Oct-13 13:26N 53°38' W 003°53'1111.8
2014-Oct-13 12:32N 53°34' W 003°37'1111.6
2014-Oct-13 11:32N 53°32' W 003°18'9 8.9
2014-Oct-13 10:33N 53°28' W 003°04'  

Dump ship's entire track history